Time;durP1;ratioP1;P1;durP2;ratioP2;P2;SDS_P1;SDS_P2;PMS_P1;PMS_P2;Temp;Humidity;BMP_temperature;BMP_pressure;BME280_temperature;BME280_humidity;BME280_pressure;Samples;Min_cycle;Max_cycle;Signal;HPM_P1;HPM_P2
2022/08/09 00:01:47;;;;;;;4.78;2.30;;;;;;;;;;2480575;54;21118;-75
2022/08/09 00:04:14;;;;;;;2.63;2.40;;;;;;;;;;2329782;57;21109;-78
2022/08/09 00:06:41;;;;;;;2.72;2.30;;;;;;;;;;2328818;57;21082;-76
2022/08/09 00:09:08;;;;;;;3.95;2.17;;;;;;;;;;2333801;54;21037;-76
2022/08/09 00:11:35;;;;;;;2.50;2.30;;;;;;;;;;2329150;57;21043;-76
2022/08/09 00:14:03;;;;;;;3.55;2.28;;;;;;;;;;2329315;57;21050;-77
2022/08/09 00:16:30;;;;;;;2.72;2.20;;;;;;;;;;2328345;57;21086;-76
2022/08/09 00:18:58;;;;;;;2.75;2.00;;;;;;;;;;2328765;57;21126;-78
2022/08/09 00:21:25;;;;;;;2.72;2.20;;;;;;;;;;2329222;57;21117;-75
2022/08/09 00:23:52;;;;;;;7.80;2.45;;;;;;;;;;2329195;57;21555;-77
2022/08/09 00:26:19;;;;;;;4.05;2.55;;;;;;;;;;2329210;57;21038;-76
2022/08/09 00:28:46;;;;;;;4.12;2.30;;;;;;;;;;2329028;57;21117;-77
2022/08/09 00:31:13;;;;;;;2.58;1.90;;;;;;;;;;2329821;57;21102;-76
2022/08/09 00:33:42;;;;;;;2.42;2.17;;;;;;;;;;2329229;57;21626;-77
2022/08/09 00:36:10;;;;;;;4.12;2.58;;;;;;;;;;2328647;57;21046;-77
2022/08/09 00:38:38;;;;;;;2.58;2.22;;;;;;;;;;2329519;57;21050;-76
2022/08/09 00:41:06;;;;;;;4.05;2.58;;;;;;;;;;2329670;57;21097;-78
2022/08/09 00:43:36;;;;;;;2.50;2.30;;;;;;;;;;2329419;57;21057;-76
2022/08/09 00:46:04;;;;;;;4.65;2.30;;;;;;;;;;2329491;57;21584;-75
2022/08/09 00:48:31;;;;;;;3.87;2.33;;;;;;;;;;2329608;57;21054;-77
2022/08/09 00:50:59;;;;;;;2.78;2.20;;;;;;;;;;2328701;57;21022;-76
2022/08/09 00:53:26;;;;;;;2.85;2.10;;;;;;;;;;2329158;57;21141;-78
2022/08/09 00:55:53;;;;;;;3.20;2.30;;;;;;;;;;2329367;57;21058;-77
2022/08/09 00:58:20;;;;;;;3.17;2.20;;;;;;;;;;2329803;57;21584;-76
2022/08/09 01:00:50;;;;;;;2.97;2.20;;;;;;;;;;2334885;54;21046;-77
2022/08/09 01:03:24;;;;;;;3.28;2.85;;;;;;;;;;2329576;57;21081;-76
2022/08/09 01:05:59;;;;;;;2.55;2.05;;;;;;;;;;2328539;57;21196;-76
2022/08/09 01:08:31;;;;;;;2.53;2.00;;;;;;;;;;2329669;57;21038;-77
2022/08/09 01:11:07;;;;;;;2.62;2.10;;;;;;;;;;2328484;57;21133;-76
2022/08/09 01:13:37;;;;;;;3.92;1.92;;;;;;;;;;2329887;57;21124;-76
2022/08/09 01:16:05;;;;;;;2.83;1.90;;;;;;;;;;2405001;54;21117;-76
2022/08/09 01:18:34;;;;;;;2.62;2.22;;;;;;;;;;2329654;57;21381;-78
2022/08/09 01:21:07;;;;;;;3.03;1.83;;;;;;;;;;2329667;57;21042;-76
2022/08/09 01:23:39;;;;;;;2.40;2.03;;;;;;;;;;2329510;55;21102;-77
2022/08/09 01:26:14;;;;;;;3.78;2.00;;;;;;;;;;2327298;57;21117;-76
2022/08/09 01:28:44;;;;;;;2.20;2.00;;;;;;;;;;2329157;57;21050;-77
2022/08/09 01:31:14;;;;;;;2.90;1.90;;;;;;;;;;2385523;54;21601;-77
2022/08/09 01:33:44;;;;;;;3.90;2.15;;;;;;;;;;2329505;57;21046;-78
2022/08/09 01:36:13;;;;;;;2.78;2.20;;;;;;;;;;2328418;57;21026;-76
2022/08/09 01:38:41;;;;;;;2.67;1.85;;;;;;;;;;2328795;57;21046;-78
2022/08/09 01:41:12;;;;;;;3.87;1.73;;;;;;;;;;2329511;57;21189;-77
2022/08/09 01:43:40;;;;;;;2.67;1.80;;;;;;;;;;2329162;57;21057;-77
2022/08/09 01:46:08;;;;;;;6.15;2.78;;;;;;;;;;2379887;54;21588;-76
2022/08/09 01:48:35;;;;;;;1.60;1.50;;;;;;;;;;2329187;57;21057;-79
2022/08/09 01:51:03;;;;;;;2.30;1.77;;;;;;;;;;2330095;57;21430;-76
2022/08/09 01:53:31;;;;;;;3.75;1.80;;;;;;;;;;2461543;54;21580;-76
2022/08/09 01:55:58;;;;;;;3.37;1.90;;;;;;;;;;2328312;57;21034;-76
2022/08/09 01:58:26;;;;;;;2.70;1.90;;;;;;;;;;2329432;57;21125;-78
2022/08/09 02:00:53;;;;;;;3.87;2.58;;;;;;;;;;2334948;54;21149;-77
2022/08/09 02:03:21;;;;;;;3.37;2.35;;;;;;;;;;2329277;57;21046;-79
2022/08/09 02:05:49;;;;;;;2.45;2.08;;;;;;;;;;2327452;57;21116;-76
2022/08/09 02:08:18;;;;;;;2.10;1.90;;;;;;;;;;2329468;57;21584;-78
2022/08/09 02:10:45;;;;;;;2.78;1.85;;;;;;;;;;2329265;57;21602;-76
2022/08/09 02:13:13;;;;;;;2.25;1.90;;;;;;;;;;2329162;57;21058;-77
2022/08/09 02:15:42;;;;;;;2.30;2.10;;;;;;;;;;2328942;57;22102;-76
2022/08/09 02:18:09;;;;;;;2.65;1.80;;;;;;;;;;2328687;57;21561;-77
2022/08/09 02:20:38;;;;;;;2.35;1.70;;;;;;;;;;2328864;57;21038;-77
2022/08/09 02:23:08;;;;;;;3.60;2.10;;;;;;;;;;2329397;57;21679;-77
2022/08/09 02:25:37;;;;;;;2.25;2.05;;;;;;;;;;2339541;54;21030;-76
2022/08/09 02:28:07;;;;;;;2.22;1.90;;;;;;;;;;2329284;57;21026;-77
2022/08/09 02:30:37;;;;;;;2.10;1.70;;;;;;;;;;2335981;54;21117;-77
2022/08/09 02:33:04;;;;;;;4.18;1.70;;;;;;;;;;2328928;57;21113;-77
2022/08/09 02:35:33;;;;;;;1.60;1.50;;;;;;;;;;2327773;57;21639;-77
2022/08/09 02:38:02;;;;;;;2.28;1.60;;;;;;;;;;2328536;57;21049;-78
2022/08/09 02:40:29;;;;;;;2.10;1.48;;;;;;;;;;2329160;55;21113;-76
2022/08/09 02:42:58;;;;;;;3.50;1.80;;;;;;;;;;2528431;54;21050;-78
2022/08/09 02:45:28;;;;;;;3.55;2.05;;;;;;;;;;2328484;57;21089;-76
2022/08/09 02:47:56;;;;;;;1.90;1.65;;;;;;;;;;2572142;54;21568;-77
2022/08/09 02:50:26;;;;;;;1.40;1.30;;;;;;;;;;2327918;54;21113;-76
2022/08/09 02:52:54;;;;;;;1.40;1.30;;;;;;;;;;2410550;54;21093;-77
2022/08/09 02:55:23;;;;;;;2.20;2.00;;;;;;;;;;2328457;57;21053;-77
2022/08/09 02:57:51;;;;;;;1.55;1.40;;;;;;;;;;2329236;57;21121;-76
2022/08/09 03:00:18;;;;;;;1.62;1.45;;;;;;;;;;2328806;57;21042;-77
2022/08/09 03:02:47;;;;;;;2.17;1.40;;;;;;;;;;2328852;57;21046;-77
2022/08/09 03:05:15;;;;;;;1.95;1.50;;;;;;;;;;2329045;57;21093;-77
2022/08/09 03:07:42;;;;;;;2.25;1.70;;;;;;;;;;2548134;54;21125;-77
2022/08/09 03:10:10;;;;;;;1.48;1.37;;;;;;;;;;2329392;57;21133;-76
2022/08/09 03:12:38;;;;;;;2.53;1.52;;;;;;;;;;2329080;57;21592;-76
2022/08/09 03:15:07;;;;;;;1.65;1.55;;;;;;;;;;2329813;57;21050;-76
2022/08/09 03:17:35;;;;;;;1.85;1.50;;;;;;;;;;2571244;54;21181;-77
2022/08/09 03:20:04;;;;;;;3.47;1.80;;;;;;;;;;2328714;57;21062;-77
2022/08/09 03:22:33;;;;;;;2.70;1.90;;;;;;;;;;2328779;57;21545;-78
2022/08/09 03:25:00;;;;;;;1.70;1.48;;;;;;;;;;2356156;54;21110;-76
2022/08/09 03:27:27;;;;;;;2.80;1.85;;;;;;;;;;2328067;57;21333;-77
2022/08/09 03:29:55;;;;;;;1.83;1.60;;;;;;;;;;2329583;57;21093;-76
2022/08/09 03:32:22;;;;;;;3.60;1.70;;;;;;;;;;2349577;54;21113;-76
2022/08/09 03:34:49;;;;;;;1.95;1.80;;;;;;;;;;2328078;57;21097;-75
2022/08/09 03:37:16;;;;;;;2.17;1.90;;;;;;;;;;2427175;54;21592;-76
2022/08/09 03:39:44;;;;;;;2.72;2.03;;;;;;;;;;2328880;57;21137;-76
2022/08/09 03:42:11;;;;;;;2.35;1.75;;;;;;;;;;2329105;57;21042;-78
2022/08/09 03:44:38;;;;;;;2.35;1.95;;;;;;;;;;2330320;57;21054;-80
2022/08/09 03:47:05;;;;;;;2.10;1.90;;;;;;;;;;2329201;57;21064;-78
2022/08/09 03:49:33;;;;;;;4.37;2.60;;;;;;;;;;2329655;57;21050;-79
2022/08/09 03:52:00;;;;;;;2.30;2.10;;;;;;;;;;2330296;57;21054;-78
2022/08/09 03:54:29;;;;;;;3.53;1.65;;;;;;;;;;2329940;57;21085;-79
2022/08/09 03:56:59;;;;;;;1.85;1.70;;;;;;;;;;2328632;57;21093;-79
2022/08/09 03:59:26;;;;;;;1.85;1.55;;;;;;;;;;2330565;57;21101;-79
2022/08/09 04:01:54;;;;;;;2.85;1.60;;;;;;;;;;2329674;57;21612;-79
2022/08/09 04:04:21;;;;;;;1.62;1.52;;;;;;;;;;2351313;54;21898;-78
2022/08/09 04:06:48;;;;;;;1.95;1.52;;;;;;;;;;2342623;54;21093;-78
2022/08/09 04:09:15;;;;;;;1.62;1.52;;;;;;;;;;2329589;57;21312;-77
2022/08/09 04:11:58;;;;;;;1.98;1.83;;;;;;;;;;2329492;57;21046;-77
2022/08/09 04:14:25;;;;;;;2.10;1.93;;;;;;;;;;2329902;57;21034;-77
2022/08/09 04:16:52;;;;;;;3.45;2.92;;;;;;;;;;2328370;57;21034;-77
2022/08/09 04:19:19;;;;;;;2.80;2.12;;;;;;;;;;2329735;57;21026;-77
2022/08/09 04:21:47;;;;;;;2.67;2.17;;;;;;;;;;2328826;57;21064;-78
2022/08/09 04:24:14;;;;;;;4.60;2.87;;;;;;;;;;2329668;57;21106;-77
2022/08/09 04:26:41;;;;;;;2.83;2.17;;;;;;;;;;2328241;57;21671;-77
2022/08/09 04:29:08;;;;;;;1.90;1.60;;;;;;;;;;2328952;57;21590;-77
2022/08/09 04:31:36;;;;;;;2.00;1.48;;;;;;;;;;2329346;57;21046;-75
2022/08/09 04:34:03;;;;;;;2.30;1.55;;;;;;;;;;2328871;57;21124;-80
2022/08/09 04:36:31;;;;;;;1.92;1.70;;;;;;;;;;2329459;57;21066;-78
2022/08/09 04:38:59;;;;;;;1.48;1.12;;;;;;;;;;2336681;54;21050;-78
2022/08/09 04:41:26;;;;;;;1.40;1.30;;;;;;;;;;2330175;57;21069;-79
2022/08/09 04:43:54;;;;;;;1.50;1.30;;;;;;;;;;2330739;57;21097;-80
2022/08/09 04:46:21;;;;;;;1.67;1.58;;;;;;;;;;2329356;57;21042;-78
2022/08/09 04:48:48;;;;;;;1.58;1.48;;;;;;;;;;2327501;57;21108;-78
2022/08/09 04:51:16;;;;;;;3.20;1.65;;;;;;;;;;2329098;57;21634;-78
2022/08/09 04:53:43;;;;;;;3.50;1.70;;;;;;;;;;2330252;57;21105;-78
2022/08/09 04:56:10;;;;;;;2.55;2.10;;;;;;;;;;2330126;57;21046;-78
2022/08/09 04:58:37;;;;;;;4.22;2.33;;;;;;;;;;2330230;57;21573;-78
2022/08/09 05:01:04;;;;;;;2.92;2.17;;;;;;;;;;2329088;57;21121;-77
2022/08/09 05:03:31;;;;;;;2.55;2.20;;;;;;;;;;2328425;57;21568;-77
2022/08/09 05:05:58;;;;;;;9.82;3.05;;;;;;;;;;2465226;54;21179;-77
2022/08/09 05:08:25;;;;;;;2.92;2.40;;;;;;;;;;2328554;57;21110;-77
2022/08/09 05:10:53;;;;;;;4.43;3.30;;;;;;;;;;2341684;54;21030;-75
2022/08/09 05:13:20;;;;;;;5.78;3.22;;;;;;;;;;2329572;55;21046;-77
2022/08/09 05:15:47;;;;;;;4.53;3.72;;;;;;;;;;2328119;57;21065;-76
2022/08/09 05:18:14;;;;;;;2.67;2.30;;;;;;;;;;2327380;57;21057;-77
2022/08/09 05:20:41;;;;;;;4.87;2.95;;;;;;;;;;2327978;57;21535;-75
2022/08/09 05:23:08;;;;;;;3.50;3.20;;;;;;;;;;2332008;54;21050;-77
2022/08/09 05:25:35;;;;;;;7.00;4.28;;;;;;;;;;2326424;57;21069;-76
2022/08/09 05:28:02;;;;;;;5.47;4.10;;;;;;;;;;2328570;57;21587;-77
2022/08/09 05:30:30;;;;;;;7.95;5.10;;;;;;;;;;2327718;57;21149;-75
2022/08/09 05:32:58;;;;;;;5.68;4.80;;;;;;;;;;2327867;57;21116;-76
2022/08/09 05:35:25;;;;;;;4.75;4.25;;;;;;;;;;2329117;57;21054;-77
2022/08/09 05:37:52;;;;;;;5.50;4.50;;;;;;;;;;2329464;57;21081;-76
2022/08/09 05:40:19;;;;;;;11.20;5.50;;;;;;;;;;2330149;57;21204;-76
2022/08/09 05:43:06;;;;;;;8.05;5.05;;;;;;;;;;2329896;57;21125;-76
2022/08/09 05:45:33;;;;;;;7.50;5.37;;;;;;;;;;2326592;58;21059;-73
2022/08/09 05:48:00;;;;;;;7.70;5.53;;;;;;;;;;2326241;58;21530;-75
2022/08/09 05:50:27;;;;;;;8.13;5.18;;;;;;;;;;2326185;58;21637;-73
2022/08/09 05:52:54;;;;;;;7.62;4.40;;;;;;;;;;2326195;58;21114;-75
2022/08/09 05:55:21;;;;;;;5.00;4.37;;;;;;;;;;2325761;58;21632;-74
2022/08/09 05:57:48;;;;;;;10.77;4.25;;;;;;;;;;2568860;54;21138;-77
2022/08/09 06:00:16;;;;;;;10.02;5.75;;;;;;;;;;2568623;54;21346;-73
2022/08/09 06:02:43;;;;;;;7.32;4.87;;;;;;;;;;2325749;58;21055;-75
2022/08/09 06:05:11;;;;;;;13.43;5.72;;;;;;;;;;2326173;58;21054;-73
2022/08/09 06:07:38;;;;;;;13.13;5.45;;;;;;;;;;2325981;58;21560;-74
2022/08/09 06:10:06;;;;;;;7.62;4.53;;;;;;;;;;2326144;58;21059;-76
2022/08/09 06:12:33;;;;;;;8.48;4.53;;;;;;;;;;2325949;58;21050;-80
2022/08/09 06:15:00;;;;;;;10.07;6.15;;;;;;;;;;2325682;58;21067;-74
2022/08/09 06:17:27;;;;;;;8.50;5.15;;;;;;;;;;2325710;58;21137;-73
2022/08/09 06:19:54;;;;;;;12.57;5.65;;;;;;;;;;2325702;58;21067;-76
2022/08/09 06:22:22;;;;;;;8.43;5.05;;;;;;;;;;2325848;58;21070;-73
2022/08/09 06:24:49;;;;;;;10.77;5.30;;;;;;;;;;2325860;58;21064;-74
2022/08/09 06:27:16;;;;;;;8.15;4.90;;;;;;;;;;2325615;58;21082;-73
2022/08/09 06:29:43;;;;;;;10.40;6.05;;;;;;;;;;2326078;58;21055;-75
2022/08/09 06:32:10;;;;;;;7.25;5.65;;;;;;;;;;2325912;58;21146;-79
2022/08/09 06:34:37;;;;;;;7.95;5.07;;;;;;;;;;2568639;54;21111;-76
2022/08/09 06:37:05;;;;;;;6.35;4.00;;;;;;;;;;2325864;58;21062;-78
2022/08/09 06:39:32;;;;;;;7.75;4.30;;;;;;;;;;2325875;58;21107;-73
2022/08/09 06:41:59;;;;;;;7.68;4.93;;;;;;;;;;2325753;58;21063;-77
2022/08/09 06:44:26;;;;;;;7.45;5.40;;;;;;;;;;2326116;58;21059;-74
2022/08/09 06:46:53;;;;;;;10.15;5.07;;;;;;;;;;2325527;58;21205;-80
2022/08/09 06:49:20;;;;;;;10.38;4.78;;;;;;;;;;2325847;58;21122;-74
2022/08/09 06:51:47;;;;;;;5.68;4.45;;;;;;;;;;2326000;58;21913;-76
2022/08/09 06:54:14;;;;;;;8.45;4.57;;;;;;;;;;2325771;58;21063;-76
2022/08/09 06:56:41;;;;;;;8.77;4.78;;;;;;;;;;2325891;58;21102;-75
2022/08/09 06:59:09;;;;;;;8.00;4.30;;;;;;;;;;2325851;58;21581;-76
2022/08/09 07:01:36;;;;;;;9.63;4.53;;;;;;;;;;2325438;58;21135;-76
2022/08/09 07:04:03;;;;;;;6.57;4.50;;;;;;;;;;2325908;58;21055;-75
2022/08/09 07:06:30;;;;;;;8.93;4.60;;;;;;;;;;2325547;58;21125;-73
2022/08/09 07:08:57;;;;;;;6.10;4.05;;;;;;;;;;2325926;58;21094;-74
2022/08/09 07:11:24;;;;;;;6.20;4.20;;;;;;;;;;2325959;58;21102;-74
2022/08/09 07:13:51;;;;;;;5.20;3.42;;;;;;;;;;2326083;58;21067;-77
2022/08/09 07:16:18;;;;;;;6.50;3.62;;;;;;;;;;2325340;58;21038;-73
2022/08/09 07:18:45;;;;;;;5.53;3.92;;;;;;;;;;2325878;58;21123;-79
2022/08/09 07:21:12;;;;;;;5.43;3.85;;;;;;;;;;2326086;58;21573;-76
2022/08/09 07:23:41;;;;;;;4.68;3.22;;;;;;;;;;2326099;58;21059;-79
2022/08/09 07:26:08;;;;;;;5.15;3.50;;;;;;;;;;2325699;58;21763;-75
2022/08/09 07:28:36;;;;;;;6.87;4.25;;;;;;;;;;2325129;58;21059;-77
2022/08/09 07:31:04;;;;;;;5.50;4.07;;;;;;;;;;2324930;58;21597;-76
2022/08/09 07:33:31;;;;;;;6.28;3.67;;;;;;;;;;2324558;58;21130;-74
2022/08/09 07:35:58;;;;;;;5.62;2.92;;;;;;;;;;2324659;58;21125;-76
2022/08/09 07:38:25;;;;;;;13.38;4.05;;;;;;;;;;2325151;58;21525;-74
2022/08/09 07:40:53;;;;;;;7.32;3.92;;;;;;;;;;2324575;58;21600;-75
2022/08/09 07:43:20;;;;;;;6.62;3.58;;;;;;;;;;2324805;58;21111;-74
2022/08/09 07:45:47;;;;;;;5.45;3.47;;;;;;;;;;2324092;58;21059;-73
2022/08/09 07:48:15;;;;;;;7.18;3.60;;;;;;;;;;2325370;58;21126;-75
2022/08/09 07:50:42;;;;;;;4.15;2.90;;;;;;;;;;2325102;58;21070;-77
2022/08/09 07:53:10;;;;;;;6.00;2.92;;;;;;;;;;2324819;58;21047;-76
2022/08/09 07:55:37;;;;;;;6.80;3.53;;;;;;;;;;2565189;54;21170;-79
2022/08/09 07:58:04;;;;;;;4.07;2.97;;;;;;;;;;2325184;58;21126;-78
2022/08/09 08:00:32;;;;;;;3.60;2.58;;;;;;;;;;2325446;58;21055;-76
2022/08/09 08:03:00;;;;;;;4.90;3.15;;;;;;;;;;2325622;58;22316;-75
2022/08/09 08:05:27;;;;;;;4.95;2.67;;;;;;;;;;2325753;58;21059;-75
2022/08/09 08:07:54;;;;;;;4.35;2.47;;;;;;;;;;2325730;58;21063;-75
2022/08/09 08:10:22;;;;;;;11.10;3.20;;;;;;;;;;2568081;54;21107;-77
2022/08/09 08:12:49;;;;;;;5.97;2.65;;;;;;;;;;2325193;58;21071;-80
2022/08/09 08:15:17;;;;;;;4.65;2.62;;;;;;;;;;2325437;58;21083;-75
2022/08/09 08:17:45;;;;;;;3.78;2.58;;;;;;;;;;2324351;58;21062;-76
2022/08/09 08:20:13;;;;;;;3.87;2.08;;;;;;;;;;2325860;58;21071;-74
2022/08/09 08:22:40;;;;;;;4.97;2.58;;;;;;;;;;2325210;58;21063;-78
2022/08/09 08:25:09;;;;;;;5.32;2.53;;;;;;;;;;2325201;58;21047;-75
2022/08/09 08:27:36;;;;;;;5.78;2.37;;;;;;;;;;2325306;58;21601;-80
2022/08/09 08:30:04;;;;;;;5.55;2.20;;;;;;;;;;2325434;58;21549;-75
2022/08/09 08:32:31;;;;;;;5.60;2.50;;;;;;;;;;2323950;58;21075;-76
2022/08/09 08:34:58;;;;;;;4.85;2.42;;;;;;;;;;2324650;58;21087;-74
2022/08/09 08:37:25;;;;;;;4.20;1.98;;;;;;;;;;2325510;58;21059;-74
2022/08/09 08:39:53;;;;;;;7.18;2.35;;;;;;;;;;2325384;58;21065;-77
2022/08/09 08:42:20;;;;;;;3.83;2.20;;;;;;;;;;2326023;58;21617;-74
2022/08/09 08:44:49;;;;;;;6.00;2.67;;;;;;;;;;2325353;58;21134;-75
2022/08/09 08:47:16;;;;;;;2.33;1.92;;;;;;;;;;2324522;58;21641;-74
2022/08/09 08:49:43;;;;;;;6.43;1.98;;;;;;;;;;2325075;58;21035;-75
2022/08/09 08:52:10;;;;;;;3.87;2.10;;;;;;;;;;2568421;53;21546;-78
2022/08/09 08:54:37;;;;;;;2.30;1.62;;;;;;;;;;2325685;58;21059;-76
2022/08/09 08:57:04;;;;;;;4.82;2.00;;;;;;;;;;2326076;58;21058;-76
2022/08/09 08:59:31;;;;;;;2.53;1.83;;;;;;;;;;2326324;58;21058;-76
2022/08/09 09:01:59;;;;;;;4.28;1.92;;;;;;;;;;2325800;58;21062;-76
2022/08/09 09:04:29;;;;;;;3.70;1.80;;;;;;;;;;2326330;58;21137;-81
2022/08/09 09:06:57;;;;;;;2.45;1.55;;;;;;;;;;2325606;58;21117;-75
2022/08/09 09:09:25;;;;;;;2.17;1.90;;;;;;;;;;2326003;58;21059;-75
2022/08/09 09:11:52;;;;;;;2.10;1.50;;;;;;;;;;2326033;58;21114;-75
2022/08/09 09:14:22;;;;;;;2.62;1.65;;;;;;;;;;2325292;58;21110;-78
2022/08/09 09:16:49;;;;;;;5.50;1.75;;;;;;;;;;2325523;58;21129;-76
2022/08/09 09:19:16;;;;;;;3.22;1.70;;;;;;;;;;2325588;58;21139;-75
2022/08/09 09:21:59;;;;;;;2.25;1.50;;;;;;;;;;2568187;53;21122;-77
2022/08/09 09:24:28;;;;;;;2.70;1.70;;;;;;;;;;2326031;58;21584;-79
2022/08/09 09:26:55;;;;;;;5.07;1.52;;;;;;;;;;2325221;58;21130;-78
2022/08/09 09:29:28;;;;;;;6.25;1.73;;;;;;;;;;2325852;58;21529;-77
2022/08/09 09:31:55;;;;;;;2.17;1.50;;;;;;;;;;2567027;53;21576;-80
2022/08/09 09:34:22;;;;;;;4.15;1.48;;;;;;;;;;2325226;58;21150;-76
2022/08/09 09:36:49;;;;;;;3.47;1.60;;;;;;;;;;2325068;58;21139;-75
2022/08/09 09:39:17;;;;;;;2.78;1.50;;;;;;;;;;2325305;58;21816;-76
2022/08/09 09:41:44;;;;;;;2.47;1.17;;;;;;;;;;2325424;58;21114;-76
2022/08/09 09:44:13;;;;;;;3.20;1.40;;;;;;;;;;2325478;58;21660;-75
2022/08/09 09:46:41;;;;;;;4.05;1.37;;;;;;;;;;2325135;58;21126;-76
2022/08/09 09:49:09;;;;;;;1.98;1.42;;;;;;;;;;2325362;58;21629;-76
2022/08/09 09:51:37;;;;;;;2.55;1.55;;;;;;;;;;2568275;53;21041;-76
2022/08/09 09:54:07;;;;;;;2.22;1.35;;;;;;;;;;2325832;58;21139;-79
2022/08/09 09:56:35;;;;;;;2.50;1.20;;;;;;;;;;2324996;58;21071;-76
2022/08/09 09:59:03;;;;;;;3.45;1.25;;;;;;;;;;2567171;54;21142;-79
2022/08/09 10:01:31;;;;;;;2.22;1.35;;;;;;;;;;2324489;58;21181;-75
2022/08/09 10:03:59;;;;;;;5.50;1.33;;;;;;;;;;2324411;58;21257;-78
2022/08/09 10:06:26;;;;;;;3.33;1.30;;;;;;;;;;2324502;58;21051;-75
2022/08/09 10:08:59;;;;;;;1.73;1.20;;;;;;;;;;2325384;58;21126;-75
2022/08/09 10:11:28;;;;;;;3.42;1.50;;;;;;;;;;2325748;58;21524;-75
2022/08/09 10:13:55;;;;;;;5.40;1.87;;;;;;;;;;2324936;58;21126;-80
2022/08/09 10:16:29;;;;;;;4.62;2.10;;;;;;;;;;2325470;58;21050;-75
2022/08/09 10:18:57;;;;;;;2.03;1.20;;;;;;;;;;2567497;54;21074;-75
2022/08/09 10:21:24;;;;;;;2.35;1.42;;;;;;;;;;2325199;57;21045;-78
2022/08/09 10:23:52;;;;;;;1.85;1.00;;;;;;;;;;2567923;54;21054;-78
2022/08/09 10:26:20;;;;;;;2.62;1.08;;;;;;;;;;2325701;58;21134;-75
2022/08/09 10:28:47;;;;;;;1.73;1.00;;;;;;;;;;2325335;58;21047;-78
2022/08/09 10:31:15;;;;;;;3.15;1.20;;;;;;;;;;2325248;58;21150;-75
2022/08/09 10:33:42;;;;;;;1.92;1.00;;;;;;;;;;2324911;58;21638;-78
2022/08/09 10:36:10;;;;;;;1.12;0.73;;;;;;;;;;2324603;58;21067;-74
2022/08/09 10:38:38;;;;;;;1.55;1.20;;;;;;;;;;2567679;54;21074;-81
2022/08/09 10:41:06;;;;;;;3.08;1.33;;;;;;;;;;2324923;58;21252;-75
2022/08/09 10:43:34;;;;;;;3.30;0.90;;;;;;;;;;2323878;58;21629;-79
2022/08/09 10:48:42;;;;;;;1.67;0.90;;;;;;;;;;2603832;53;22049;-76
2022/08/09 10:51:13;;;;;;;2.37;1.27;;;;;;;;;;2349960;56;21605;-80
2022/08/09 10:53:51;;;;;;;3.03;1.20;;;;;;;;;;2372986;56;21090;-80
2022/08/09 10:56:19;;;;;;;1.35;1.10;;;;;;;;;;2372949;56;21122;-75
2022/08/09 10:58:47;;;;;;;6.15;1.40;;;;;;;;;;2373521;56;21105;-74
2022/08/09 11:01:32;;;;;;;2.58;1.23;;;;;;;;;;2625774;52;21124;-79
2022/08/09 11:04:17;;;;;;;4.05;1.10;;;;;;;;;;2372100;56;21125;-76
2022/08/09 11:06:44;;;;;;;1.25;1.00;;;;;;;;;;2372789;56;21071;-79
2022/08/09 11:09:12;;;;;;;3.60;1.40;;;;;;;;;;2373507;56;21125;-75
2022/08/09 11:11:58;;;;;;;2.78;1.23;;;;;;;;;;2372581;56;21055;-78
2022/08/09 11:14:30;;;;;;;3.03;1.30;;;;;;;;;;2626140;52;21035;-76
2022/08/09 11:16:57;;;;;;;4.05;1.20;;;;;;;;;;2371690;56;21103;-79
2022/08/09 11:19:43;;;;;;;1.50;1.02;;;;;;;;;;2372376;56;21545;-82
2022/08/09 11:22:10;;;;;;;4.53;1.42;;;;;;;;;;2372755;56;21051;-74
2022/08/09 11:24:56;;;;;;;2.05;0.90;;;;;;;;;;2372690;56;21063;-79
2022/08/09 11:27:30;;;;;;;1.77;1.00;;;;;;;;;;2625243;52;21046;-76
2022/08/09 11:29:57;;;;;;;2.12;1.00;;;;;;;;;;2373403;56;21098;-74
2022/08/09 11:32:44;;;;;;;1.75;1.00;;;;;;;;;;2373048;56;21105;-75
2022/08/09 11:35:14;;;;;;;1.73;0.90;;;;;;;;;;2625510;52;21109;-76
2022/08/09 11:37:41;;;;;;;0.90;0.77;;;;;;;;;;2372508;56;21042;-81
2022/08/09 11:40:10;;;;;;;1.98;0.93;;;;;;;;;;2373282;56;21054;-79
2022/08/09 11:42:46;;;;;;;4.07;1.08;;;;;;;;;;2372967;56;21142;-75
2022/08/09 11:45:23;;;;;;;1.87;0.98;;;;;;;;;;2501120;54;71099;-87
2022/08/09 11:47:51;;;;;;;1.23;0.90;;;;;;;;;;2538430;54;21070;-86
2022/08/09 11:50:18;;;;;;;2.90;1.00;;;;;;;;;;2537915;54;21078;-86
2022/08/09 11:53:05;;;;;;;1.55;0.88;;;;;;;;;;2537186;54;21128;-85
2022/08/09 11:55:36;;;;;;;2.60;0.85;;;;;;;;;;2276219;59;21084;-86
2022/08/09 11:58:04;;;;;;;3.30;1.10;;;;;;;;;;2277095;59;21144;-87
2022/08/09 12:00:33;;;;;;;2.22;1.15;;;;;;;;;;2507781;54;21060;-88
2022/08/09 12:03:01;;;;;;;1.10;0.80;;;;;;;;;;2509034;55;21088;-86
2022/08/09 12:05:32;;;;;;;1.62;1.17;;;;;;;;;;2277226;59;21569;-86
2022/08/09 12:07:59;;;;;;;1.90;1.08;;;;;;;;;;2511721;55;21136;-85
2022/08/09 12:10:26;;;;;;;5.07;0.80;;;;;;;;;;2511509;54;21928;-86
2022/08/09 12:12:53;;;;;;;1.75;1.15;;;;;;;;;;2512265;55;21068;-85
2022/08/09 12:15:22;;;;;;;1.30;1.00;;;;;;;;;;2511446;55;21128;-85
2022/08/09 12:17:50;;;;;;;2.35;1.17;;;;;;;;;;2511590;55;21378;-86
2022/08/09 12:20:19;;;;;;;1.42;1.02;;;;;;;;;;2279343;59;21100;-86
2022/08/09 12:22:47;;;;;;;1.80;1.00;;;;;;;;;;2511470;55;21092;-85
2022/08/09 12:25:15;;;;;;;1.27;0.55;;;;;;;;;;2278891;59;21084;-85
2022/08/09 12:27:42;;;;;;;1.17;0.95;;;;;;;;;;2279423;59;21064;-85
2022/08/09 12:30:10;;;;;;;2.37;1.10;;;;;;;;;;2279191;59;21064;-85
2022/08/09 12:32:37;;;;;;;1.62;0.80;;;;;;;;;;2279855;59;21620;-86
2022/08/09 12:35:06;;;;;;;3.78;1.00;;;;;;;;;;2279297;59;21142;-85
2022/08/09 12:37:33;;;;;;;1.73;1.00;;;;;;;;;;2279205;59;21080;-85
2022/08/09 12:40:05;;;;;;;1.67;1.00;;;;;;;;;;2279447;59;21068;-87
2022/08/09 12:42:32;;;;;;;3.62;1.17;;;;;;;;;;2511061;55;21081;-85
2022/08/09 12:44:59;;;;;;;2.15;0.90;;;;;;;;;;2278339;59;21076;-85
2022/08/09 12:47:26;;;;;;;4.70;1.05;;;;;;;;;;2278588;59;21132;-85
2022/08/09 12:52:39;;;;;;;1.37;1.00;;;;;;;;;;2279465;59;21517;-85
2022/08/09 12:55:08;;;;;;;2.53;1.00;;;;;;;;;;2279351;59;21096;-86
2022/08/09 12:57:36;;;;;;;1.58;1.08;;;;;;;;;;2511760;55;21637;-87
2022/08/09 13:00:16;;;;;;;2.10;1.10;;;;;;;;;;2278766;59;21577;-86
2022/08/09 13:02:48;;;;;;;2.25;0.93;;;;;;;;;;2278475;59;21127;-86
2022/08/09 13:05:15;;;;;;;5.68;1.50;;;;;;;;;;2511237;55;21581;-80
2022/08/09 13:07:42;;;;;;;2.25;0.80;;;;;;;;;;2277225;59;21291;-86
2022/08/09 13:10:09;;;;;;;0.70;0.70;;;;;;;;;;2278702;59;21056;-85
2022/08/09 13:12:47;;;;;;;1.30;0.80;;;;;;;;;;2279155;59;21937;-86
2022/08/09 13:15:14;;;;;;;2.35;1.10;;;;;;;;;;2278408;59;21128;-87
2022/08/09 13:17:41;;;;;;;2.08;0.90;;;;;;;;;;2511090;55;21401;-86
2022/08/09 13:20:10;;;;;;;1.95;0.90;;;;;;;;;;2510793;55;21072;-86
2022/08/09 13:22:47;;;;;;;3.78;1.00;;;;;;;;;;2510765;55;21151;-86
2022/08/09 13:25:14;;;;;;;3.30;1.40;;;;;;;;;;2511225;55;21084;-88
2022/08/09 13:27:41;;;;;;;2.83;0.85;;;;;;;;;;2278062;59;21080;-85
2022/08/09 13:30:10;;;;;;;1.80;0.90;;;;;;;;;;2278596;59;21075;-85
2022/08/09 13:32:45;;;;;;;1.02;0.90;;;;;;;;;;2278725;59;21874;-86
2022/08/09 13:35:12;;;;;;;2.28;0.70;;;;;;;;;;2278787;59;21124;-86
2022/08/09 13:37:39;;;;;;;1.37;0.70;;;;;;;;;;2510576;55;21080;-86
2022/08/09 13:40:08;;;;;;;2.58;1.00;;;;;;;;;;2278493;59;21155;-85
2022/08/09 13:42:35;;;;;;;2.17;0.82;;;;;;;;;;2278142;59;21886;-86
2022/08/09 13:45:03;;;;;;;17.90;0.90;;;;;;;;;;2278420;59;21826;-86
2022/08/09 13:47:31;;;;;;;1.87;0.93;;;;;;;;;;2277887;59;21096;-88
2022/08/09 13:49:58;;;;;;;3.87;1.10;;;;;;;;;;2278514;59;21092;-86
2022/08/09 13:52:25;;;;;;;1.80;0.82;;;;;;;;;;2510542;55;21175;-85
2022/08/09 13:54:52;;;;;;;3.10;1.20;;;;;;;;;;2511053;54;21147;-87
2022/08/09 13:57:19;;;;;;;4.82;1.25;;;;;;;;;;2278426;59;21588;-86
2022/08/09 13:59:46;;;;;;;4.12;1.00;;;;;;;;;;2511093;55;21123;-87
2022/08/09 14:02:13;;;;;;;5.62;0.90;;;;;;;;;;2511290;55;21664;-86
2022/08/09 14:04:40;;;;;;;1.48;1.10;;;;;;;;;;2278262;59;21071;-86
2022/08/09 14:07:07;;;;;;;1.17;0.70;;;;;;;;;;2511130;54;21592;-80
2022/08/09 14:09:34;;;;;;;2.30;0.90;;;;;;;;;;2276019;59;21068;-86
2022/08/09 14:12:02;;;;;;;5.68;1.00;;;;;;;;;;2511263;54;21084;-87
2022/08/09 14:14:29;;;;;;;2.85;0.90;;;;;;;;;;2511081;54;21834;-85
2022/08/09 14:16:57;;;;;;;1.25;0.70;;;;;;;;;;2511248;54;21858;-86
2022/08/09 14:19:24;;;;;;;3.33;1.05;;;;;;;;;;2512000;55;21584;-87
2022/08/09 14:21:51;;;;;;;0.88;0.70;;;;;;;;;;2279268;59;21568;-86
2022/08/09 14:24:19;;;;;;;1.00;0.88;;;;;;;;;;2511694;55;21147;-87
2022/08/09 14:26:46;;;;;;;1.65;0.90;;;;;;;;;;2277185;59;21132;-86
2022/08/09 14:29:14;;;;;;;4.60;1.17;;;;;;;;;;2278889;59;21135;-86
2022/08/09 14:31:41;;;;;;;3.53;0.80;;;;;;;;;;2276724;59;21076;-86
2022/08/09 14:34:09;;;;;;;0.65;0.65;;;;;;;;;;2278118;59;21125;-87
2022/08/09 14:36:36;;;;;;;2.05;1.17;;;;;;;;;;2278010;59;21080;-87
2022/08/09 14:39:03;;;;;;;4.43;1.17;;;;;;;;;;2278952;59;21152;-86
2022/08/09 14:41:30;;;;;;;2.60;0.88;;;;;;;;;;2279753;59;21177;-87
2022/08/09 14:43:57;;;;;;;3.87;0.73;;;;;;;;;;2278589;59;21405;-88
2022/08/09 14:46:24;;;;;;;2.45;1.35;;;;;;;;;;2508828;55;21076;-88
2022/08/09 14:48:53;;;;;;;8.00;1.10;;;;;;;;;;2276305;59;21140;-83
2022/08/09 14:51:20;;;;;;;2.08;0.98;;;;;;;;;;2510410;55;21076;-86
2022/08/09 14:53:47;;;;;;;6.12;1.12;;;;;;;;;;2279018;59;21576;-85
2022/08/09 14:56:14;;;;;;;3.22;1.20;;;;;;;;;;2278869;59;21084;-86